sensor_id;sensor_type;location;lat;lon;timestamp;P1;durP1;ratioP1;P2;durP2;ratioP2
4272;SDS011;63887;53.656;9.810;2023-03-14T00:01:35;18.50;;;9.60;;
4272;SDS011;63887;53.656;9.810;2023-03-14T00:04:04;11.43;;;8.07;;
4272;SDS011;63887;53.656;9.810;2023-03-14T00:06:31;18.33;;;8.83;;
4272;SDS011;63887;53.656;9.810;2023-03-14T00:08:57;19.70;;;9.87;;
4272;SDS011;63887;53.656;9.810;2023-03-14T00:11:24;21.23;;;9.20;;
4272;SDS011;63887;53.656;9.810;2023-03-14T00:13:51;34.77;;;10.40;;
4272;SDS011;63887;53.656;9.810;2023-03-14T00:16:19;16.80;;;9.00;;
4272;SDS011;63887;53.656;9.810;2023-03-14T00:18:46;10.80;;;9.80;;
4272;SDS011;63887;53.656;9.810;2023-03-14T00:21:14;21.43;;;9.70;;
4272;SDS011;63887;53.656;9.810;2023-03-14T00:23:41;31.57;;;10.57;;
4272;SDS011;63887;53.656;9.810;2023-03-14T00:26:09;16.37;;;9.30;;
4272;SDS011;63887;53.656;9.810;2023-03-14T00:28:37;13.30;;;8.77;;
4272;SDS011;63887;53.656;9.810;2023-03-14T00:31:04;9.37;;;8.40;;
4272;SDS011;63887;53.656;9.810;2023-03-14T00:33:31;10.07;;;8.70;;
4272;SDS011;63887;53.656;9.810;2023-03-14T00:35:58;11.23;;;8.73;;
4272;SDS011;63887;53.656;9.810;2023-03-14T00:38:27;9.70;;;8.73;;
4272;SDS011;63887;53.656;9.810;2023-03-14T00:40:54;9.33;;;8.40;;
4272;SDS011;63887;53.656;9.810;2023-03-14T00:43:20;8.60;;;7.87;;
4272;SDS011;63887;53.656;9.810;2023-03-14T00:45:47;10.40;;;8.43;;
4272;SDS011;63887;53.656;9.810;2023-03-14T00:48:14;16.83;;;9.77;;
4272;SDS011;63887;53.656;9.810;2023-03-14T00:50:40;19.10;;;9.60;;
4272;SDS011;63887;53.656;9.810;2023-03-14T00:53:07;13.87;;;8.93;;
4272;SDS011;63887;53.656;9.810;2023-03-14T00:55:37;10.70;;;9.07;;
4272;SDS011;63887;53.656;9.810;2023-03-14T00:58:03;14.87;;;8.30;;
4272;SDS011;63887;53.656;9.810;2023-03-14T01:00:30;10.03;;;7.87;;
4272;SDS011;63887;53.656;9.810;2023-03-14T01:02:57;18.57;;;8.40;;
4272;SDS011;63887;53.656;9.810;2023-03-14T01:05:23;16.87;;;10.77;;
4272;SDS011;63887;53.656;9.810;2023-03-14T01:07:50;10.37;;;8.10;;
4272;SDS011;63887;53.656;9.810;2023-03-14T01:10:17;14.53;;;7.73;;
4272;SDS011;63887;53.656;9.810;2023-03-14T01:12:45;22.53;;;9.47;;
4272;SDS011;63887;53.656;9.810;2023-03-14T01:15:11;23.07;;;8.73;;
4272;SDS011;63887;53.656;9.810;2023-03-14T01:17:38;9.30;;;8.57;;
4272;SDS011;63887;53.656;9.810;2023-03-14T01:20:05;21.87;;;8.77;;
4272;SDS011;63887;53.656;9.810;2023-03-14T01:22:34;14.57;;;8.53;;
4272;SDS011;63887;53.656;9.810;2023-03-14T01:25:00;11.20;;;7.20;;
4272;SDS011;63887;53.656;9.810;2023-03-14T01:27:27;19.97;;;9.30;;
4272;SDS011;63887;53.656;9.810;2023-03-14T01:29:55;8.90;;;8.20;;
4272;SDS011;63887;53.656;9.810;2023-03-14T01:32:21;20.70;;;8.87;;
4272;SDS011;63887;53.656;9.810;2023-03-14T01:34:48;16.47;;;7.67;;
4272;SDS011;63887;53.656;9.810;2023-03-14T01:37:15;10.47;;;8.57;;
4272;SDS011;63887;53.656;9.810;2023-03-14T01:39:41;23.87;;;8.70;;
4272;SDS011;63887;53.656;9.810;2023-03-14T01:42:08;19.23;;;8.73;;
4272;SDS011;63887;53.656;9.810;2023-03-14T01:47:21;17.53;;;9.27;;
4272;SDS011;63887;53.656;9.810;2023-03-14T01:49:49;17.57;;;8.83;;
4272;SDS011;63887;53.656;9.810;2023-03-14T01:52:19;14.60;;;7.40;;
4272;SDS011;63887;53.656;9.810;2023-03-14T01:54:51;15.40;;;7.53;;
4272;SDS011;63887;53.656;9.810;2023-03-14T01:57:20;11.90;;;7.87;;
4272;SDS011;63887;53.656;9.810;2023-03-14T01:59:51;13.07;;;8.20;;
4272;SDS011;63887;53.656;9.810;2023-03-14T02:02:23;15.30;;;8.83;;
4272;SDS011;63887;53.656;9.810;2023-03-14T02:04:52;12.03;;;8.40;;
4272;SDS011;63887;53.656;9.810;2023-03-14T02:07:19;9.30;;;8.50;;
4272;SDS011;63887;53.656;9.810;2023-03-14T02:09:48;10.73;;;9.73;;
4272;SDS011;63887;53.656;9.810;2023-03-14T02:12:15;14.93;;;8.20;;
4272;SDS011;63887;53.656;9.810;2023-03-14T02:14:43;11.60;;;8.40;;
4272;SDS011;63887;53.656;9.810;2023-03-14T02:17:13;10.53;;;8.00;;
4272;SDS011;63887;53.656;9.810;2023-03-14T02:19:46;11.20;;;8.60;;
4272;SDS011;63887;53.656;9.810;2023-03-14T02:22:22;10.63;;;9.63;;
4272;SDS011;63887;53.656;9.810;2023-03-14T02:24:50;12.47;;;8.63;;
4272;SDS011;63887;53.656;9.810;2023-03-14T02:27:25;16.27;;;8.90;;
4272;SDS011;63887;53.656;9.810;2023-03-14T02:29:53;11.23;;;8.90;;
4272;SDS011;63887;53.656;9.810;2023-03-14T02:32:22;12.50;;;9.03;;
4272;SDS011;63887;53.656;9.810;2023-03-14T02:34:53;10.00;;;9.20;;
4272;SDS011;63887;53.656;9.810;2023-03-14T02:37:21;17.90;;;10.03;;
4272;SDS011;63887;53.656;9.810;2023-03-14T02:39:49;10.23;;;9.20;;
4272;SDS011;63887;53.656;9.810;2023-03-14T02:42:16;10.60;;;9.43;;
4272;SDS011;63887;53.656;9.810;2023-03-14T02:44:49;12.87;;;9.80;;
4272;SDS011;63887;53.656;9.810;2023-03-14T02:47:18;9.70;;;8.90;;
4272;SDS011;63887;53.656;9.810;2023-03-14T02:49:48;12.50;;;10.47;;
4272;SDS011;63887;53.656;9.810;2023-03-14T02:52:16;10.30;;;9.60;;
4272;SDS011;63887;53.656;9.810;2023-03-14T02:54:42;17.50;;;9.20;;
4272;SDS011;63887;53.656;9.810;2023-03-14T02:57:09;17.43;;;9.70;;
4272;SDS011;63887;53.656;9.810;2023-03-14T02:59:35;14.60;;;9.70;;
4272;SDS011;63887;53.656;9.810;2023-03-14T03:02:03;11.70;;;8.43;;
4272;SDS011;63887;53.656;9.810;2023-03-14T03:04:29;11.53;;;9.33;;
4272;SDS011;63887;53.656;9.810;2023-03-14T03:06:56;12.27;;;9.00;;
4272;SDS011;63887;53.656;9.810;2023-03-14T03:09:22;13.80;;;10.00;;
4272;SDS011;63887;53.656;9.810;2023-03-14T03:11:49;11.27;;;9.63;;
4272;SDS011;63887;53.656;9.810;2023-03-14T03:14:15;18.73;;;10.20;;
4272;SDS011;63887;53.656;9.810;2023-03-14T03:16:41;20.00;;;9.97;;
4272;SDS011;63887;53.656;9.810;2023-03-14T03:19:09;11.10;;;10.03;;
4272;SDS011;63887;53.656;9.810;2023-03-14T03:21:36;10.27;;;9.40;;
4272;SDS011;63887;53.656;9.810;2023-03-14T03:24:02;10.00;;;9.30;;
4272;SDS011;63887;53.656;9.810;2023-03-14T03:26:29;14.77;;;10.60;;
4272;SDS011;63887;53.656;9.810;2023-03-14T03:28:55;11.57;;;10.23;;
4272;SDS011;63887;53.656;9.810;2023-03-14T03:31:21;22.00;;;11.20;;
4272;SDS011;63887;53.656;9.810;2023-03-14T03:33:48;12.60;;;10.10;;
4272;SDS011;63887;53.656;9.810;2023-03-14T03:36:17;12.80;;;10.00;;
4272;SDS011;63887;53.656;9.810;2023-03-14T03:38:47;18.17;;;9.57;;
4272;SDS011;63887;53.656;9.810;2023-03-14T03:41:13;10.87;;;9.87;;
4272;SDS011;63887;53.656;9.810;2023-03-14T03:43:40;11.43;;;9.67;;
4272;SDS011;63887;53.656;9.810;2023-03-14T03:46:07;11.10;;;9.20;;
4272;SDS011;63887;53.656;9.810;2023-03-14T03:48:34;18.73;;;9.70;;
4272;SDS011;63887;53.656;9.810;2023-03-14T03:51:01;10.27;;;9.20;;
4272;SDS011;63887;53.656;9.810;2023-03-14T03:53:29;12.47;;;9.80;;
4272;SDS011;63887;53.656;9.810;2023-03-14T03:55:56;13.63;;;9.80;;
4272;SDS011;63887;53.656;9.810;2023-03-14T03:58:22;18.43;;;9.67;;
4272;SDS011;63887;53.656;9.810;2023-03-14T04:00:49;12.47;;;9.37;;
4272;SDS011;63887;53.656;9.810;2023-03-14T04:03:15;16.23;;;10.50;;
4272;SDS011;63887;53.656;9.810;2023-03-14T04:05:41;14.40;;;8.60;;
4272;SDS011;63887;53.656;9.810;2023-03-14T04:08:08;16.73;;;9.07;;
4272;SDS011;63887;53.656;9.810;2023-03-14T04:10:36;15.73;;;9.50;;
4272;SDS011;63887;53.656;9.810;2023-03-14T04:13:02;18.10;;;10.97;;
4272;SDS011;63887;53.656;9.810;2023-03-14T04:15:29;10.60;;;9.60;;
4272;SDS011;63887;53.656;9.810;2023-03-14T04:17:56;10.63;;;9.47;;
4272;SDS011;63887;53.656;9.810;2023-03-14T04:20:23;10.33;;;9.30;;
4272;SDS011;63887;53.656;9.810;2023-03-14T04:22:50;17.27;;;10.30;;
4272;SDS011;63887;53.656;9.810;2023-03-14T04:25:16;9.57;;;8.83;;
4272;SDS011;63887;53.656;9.810;2023-03-14T04:27:46;10.47;;;9.57;;
4272;SDS011;63887;53.656;9.810;2023-03-14T04:30:13;10.17;;;9.47;;
4272;SDS011;63887;53.656;9.810;2023-03-14T04:32:39;10.30;;;9.00;;
4272;SDS011;63887;53.656;9.810;2023-03-14T04:35:06;8.03;;;7.07;;
4272;SDS011;63887;53.656;9.810;2023-03-14T04:37:33;7.30;;;7.00;;
4272;SDS011;63887;53.656;9.810;2023-03-14T04:39:59;7.67;;;7.20;;
4272;SDS011;63887;53.656;9.810;2023-03-14T04:42:26;7.53;;;7.10;;
4272;SDS011;63887;53.656;9.810;2023-03-14T04:44:54;7.83;;;7.13;;
4272;SDS011;63887;53.656;9.810;2023-03-14T04:47:20;7.23;;;6.80;;
4272;SDS011;63887;53.656;9.810;2023-03-14T04:49:46;6.70;;;6.60;;
4272;SDS011;63887;53.656;9.810;2023-03-14T04:52:13;7.67;;;7.03;;
4272;SDS011;63887;53.656;9.810;2023-03-14T04:54:39;6.90;;;6.50;;
4272;SDS011;63887;53.656;9.810;2023-03-14T04:57:05;7.33;;;6.93;;
4272;SDS011;63887;53.656;9.810;2023-03-14T04:59:32;8.17;;;7.57;;
4272;SDS011;63887;53.656;9.810;2023-03-14T05:02:00;9.43;;;7.10;;
4272;SDS011;63887;53.656;9.810;2023-03-14T05:04:26;7.03;;;6.60;;
4272;SDS011;63887;53.656;9.810;2023-03-14T05:06:52;8.43;;;7.73;;
4272;SDS011;63887;53.656;9.810;2023-03-14T05:09:19;7.00;;;6.50;;
4272;SDS011;63887;53.656;9.810;2023-03-14T05:11:45;6.83;;;6.20;;
4272;SDS011;63887;53.656;9.810;2023-03-14T05:14:12;10.60;;;6.70;;
4272;SDS011;63887;53.656;9.810;2023-03-14T05:16:38;6.10;;;6.00;;
4272;SDS011;63887;53.656;9.810;2023-03-14T05:19:06;7.17;;;6.70;;
4272;SDS011;63887;53.656;9.810;2023-03-14T05:21:32;6.60;;;6.30;;
4272;SDS011;63887;53.656;9.810;2023-03-14T05:23:59;10.63;;;6.80;;
4272;SDS011;63887;53.656;9.810;2023-03-14T05:26:25;7.23;;;6.60;;
4272;SDS011;63887;53.656;9.810;2023-03-14T05:28:52;9.17;;;7.03;;
4272;SDS011;63887;53.656;9.810;2023-03-14T05:31:18;7.00;;;6.70;;
4272;SDS011;63887;53.656;9.810;2023-03-14T05:33:45;7.40;;;7.10;;
4272;SDS011;63887;53.656;9.810;2023-03-14T05:36:13;7.10;;;6.80;;
4272;SDS011;63887;53.656;9.810;2023-03-14T05:38:39;8.00;;;7.17;;
4272;SDS011;63887;53.656;9.810;2023-03-14T05:41:06;8.17;;;7.67;;
4272;SDS011;63887;53.656;9.810;2023-03-14T05:43:32;7.50;;;6.93;;
4272;SDS011;63887;53.656;9.810;2023-03-14T05:45:58;7.40;;;7.00;;
4272;SDS011;63887;53.656;9.810;2023-03-14T05:48:25;7.60;;;6.93;;
4272;SDS011;63887;53.656;9.810;2023-03-14T05:50:54;7.70;;;7.30;;
4272;SDS011;63887;53.656;9.810;2023-03-14T05:53:22;8.37;;;7.00;;
4272;SDS011;63887;53.656;9.810;2023-03-14T05:55:50;12.77;;;7.83;;
4272;SDS011;63887;53.656;9.810;2023-03-14T05:58:17;8.27;;;7.43;;
4272;SDS011;63887;53.656;9.810;2023-03-14T06:00:43;9.83;;;7.73;;
4272;SDS011;63887;53.656;9.810;2023-03-14T06:03:10;8.40;;;7.70;;
4272;SDS011;63887;53.656;9.810;2023-03-14T06:05:36;8.90;;;8.17;;
4272;SDS011;63887;53.656;9.810;2023-03-14T06:08:03;12.33;;;10.10;;
4272;SDS011;63887;53.656;9.810;2023-03-14T06:10:31;9.43;;;8.83;;
4272;SDS011;63887;53.656;9.810;2023-03-14T06:12:57;10.53;;;9.57;;
4272;SDS011;63887;53.656;9.810;2023-03-14T06:15:24;10.00;;;8.97;;
4272;SDS011;63887;53.656;9.810;2023-03-14T06:17:50;14.47;;;10.37;;
4272;SDS011;63887;53.656;9.810;2023-03-14T06:20:17;10.97;;;9.87;;
4272;SDS011;63887;53.656;9.810;2023-03-14T06:22:44;12.47;;;10.07;;
4272;SDS011;63887;53.656;9.810;2023-03-14T06:25:10;11.60;;;8.97;;
4272;SDS011;63887;53.656;9.810;2023-03-14T06:27:38;14.13;;;11.33;;
4272;SDS011;63887;53.656;9.810;2023-03-14T06:30:05;20.43;;;11.33;;
4272;SDS011;63887;53.656;9.810;2023-03-14T06:32:32;13.90;;;12.40;;
4272;SDS011;63887;53.656;9.810;2023-03-14T06:34:58;14.17;;;12.70;;
4272;SDS011;63887;53.656;9.810;2023-03-14T06:37:26;26.00;;;12.87;;
4272;SDS011;63887;53.656;9.810;2023-03-14T06:39:52;18.53;;;13.83;;
4272;SDS011;63887;53.656;9.810;2023-03-14T06:42:19;14.03;;;13.00;;
4272;SDS011;63887;53.656;9.810;2023-03-14T06:44:46;14.77;;;12.47;;
4272;SDS011;63887;53.656;9.810;2023-03-14T06:47:13;14.53;;;13.20;;
4272;SDS011;63887;53.656;9.810;2023-03-14T06:49:39;18.10;;;12.10;;
4272;SDS011;63887;53.656;9.810;2023-03-14T06:52:06;13.97;;;12.47;;
4272;SDS011;63887;53.656;9.810;2023-03-14T06:54:32;18.57;;;13.40;;
4272;SDS011;63887;53.656;9.810;2023-03-14T06:56:59;13.57;;;12.17;;
4272;SDS011;63887;53.656;9.810;2023-03-14T06:59:25;15.63;;;13.83;;
4272;SDS011;63887;53.656;9.810;2023-03-14T07:01:53;16.40;;;13.57;;
4272;SDS011;63887;53.656;9.810;2023-03-14T07:04:19;11.90;;;10.63;;
4272;SDS011;63887;53.656;9.810;2023-03-14T07:06:46;12.23;;;11.23;;
4272;SDS011;63887;53.656;9.810;2023-03-14T07:09:12;15.40;;;10.30;;
4272;SDS011;63887;53.656;9.810;2023-03-14T07:11:39;15.53;;;9.63;;
4272;SDS011;63887;53.656;9.810;2023-03-14T07:14:06;11.77;;;10.07;;
4272;SDS011;63887;53.656;9.810;2023-03-14T07:16:32;26.77;;;11.97;;
4272;SDS011;63887;53.656;9.810;2023-03-14T07:19:00;12.27;;;9.10;;
4272;SDS011;63887;53.656;9.810;2023-03-14T07:21:28;25.03;;;9.80;;
4272;SDS011;63887;53.656;9.810;2023-03-14T07:23:56;11.53;;;10.23;;
4272;SDS011;63887;53.656;9.810;2023-03-14T07:26:23;11.70;;;8.60;;
4272;SDS011;63887;53.656;9.810;2023-03-14T07:28:49;10.83;;;9.50;;
4272;SDS011;63887;53.656;9.810;2023-03-14T07:31:16;20.63;;;9.57;;
4272;SDS011;63887;53.656;9.810;2023-03-14T07:33:42;14.95;;;10.15;;
4272;SDS011;63887;53.656;9.810;2023-03-14T07:36:10;10.33;;;9.43;;
4272;SDS011;63887;53.656;9.810;2023-03-14T07:38:37;10.17;;;9.27;;
4272;SDS011;63887;53.656;9.810;2023-03-14T07:41:04;15.00;;;8.53;;
4272;SDS011;63887;53.656;9.810;2023-03-14T07:43:32;12.33;;;8.27;;
4272;SDS011;63887;53.656;9.810;2023-03-14T07:45:59;9.43;;;8.47;;
4272;SDS011;63887;53.656;9.810;2023-03-14T07:48:25;12.53;;;9.03;;
4272;SDS011;63887;53.656;9.810;2023-03-14T07:50:52;9.27;;;8.40;;
4272;SDS011;63887;53.656;9.810;2023-03-14T07:53:21;10.80;;;8.93;;
4272;SDS011;63887;53.656;9.810;2023-03-14T07:55:50;14.70;;;8.80;;
4272;SDS011;63887;53.656;9.810;2023-03-14T07:58:17;8.90;;;8.03;;
4272;SDS011;63887;53.656;9.810;2023-03-14T08:00:44;11.17;;;9.80;;
4272;SDS011;63887;53.656;9.810;2023-03-14T08:03:10;9.80;;;8.83;;
4272;SDS011;63887;53.656;9.810;2023-03-14T08:05:37;8.90;;;8.00;;
4272;SDS011;63887;53.656;9.810;2023-03-14T08:08:04;9.83;;;7.50;;
4272;SDS011;63887;53.656;9.810;2023-03-14T08:10:32;8.10;;;7.40;;
4272;SDS011;63887;53.656;9.810;2023-03-14T08:12:59;9.47;;;7.40;;
4272;SDS011;63887;53.656;9.810;2023-03-14T08:15:26;18.63;;;8.30;;
4272;SDS011;63887;53.656;9.810;2023-03-14T08:17:55;10.10;;;7.93;;
4272;SDS011;63887;53.656;9.810;2023-03-14T08:20:22;9.80;;;7.83;;
4272;SDS011;63887;53.656;9.810;2023-03-14T08:22:50;8.93;;;8.40;;
4272;SDS011;63887;53.656;9.810;2023-03-14T08:25:16;19.00;;;7.60;;
4272;SDS011;63887;53.656;9.810;2023-03-14T08:27:45;8.10;;;6.63;;
4272;SDS011;63887;53.656;9.810;2023-03-14T08:30:12;7.97;;;7.30;;
4272;SDS011;63887;53.656;9.810;2023-03-14T08:32:40;8.30;;;7.50;;
4272;SDS011;63887;53.656;9.810;2023-03-14T08:35:07;8.43;;;7.50;;
4272;SDS011;63887;53.656;9.810;2023-03-14T08:37:34;9.33;;;7.63;;
4272;SDS011;63887;53.656;9.810;2023-03-14T08:40:02;9.30;;;8.40;;
4272;SDS011;63887;53.656;9.810;2023-03-14T08:42:31;9.67;;;8.63;;
4272;SDS011;63887;53.656;9.810;2023-03-14T08:44:59;8.30;;;7.50;;
4272;SDS011;63887;53.656;9.810;2023-03-14T08:47:26;10.60;;;8.60;;
4272;SDS011;63887;53.656;9.810;2023-03-14T08:49:52;8.73;;;7.80;;
4272;SDS011;63887;53.656;9.810;2023-03-14T08:52:19;9.33;;;7.70;;
4272;SDS011;63887;53.656;9.810;2023-03-14T08:54:45;9.03;;;8.23;;
4272;SDS011;63887;53.656;9.810;2023-03-14T08:57:12;8.20;;;7.37;;
4272;SDS011;63887;53.656;9.810;2023-03-14T08:59:39;8.13;;;7.50;;
4272;SDS011;63887;53.656;9.810;2023-03-14T09:02:08;10.40;;;7.30;;
4272;SDS011;63887;53.656;9.810;2023-03-14T09:04:35;13.80;;;7.60;;
4272;SDS011;63887;53.656;9.810;2023-03-14T09:07:01;14.07;;;8.57;;
4272;SDS011;63887;53.656;9.810;2023-03-14T09:09:28;7.27;;;6.73;;
4272;SDS011;63887;53.656;9.810;2023-03-14T09:11:55;8.90;;;7.60;;
4272;SDS011;63887;53.656;9.810;2023-03-14T09:14:22;12.73;;;7.97;;
4272;SDS011;63887;53.656;9.810;2023-03-14T09:16:49;9.67;;;8.07;;
4272;SDS011;63887;53.656;9.810;2023-03-14T09:19:17;9.63;;;8.30;;
4272;SDS011;63887;53.656;9.810;2023-03-14T09:21:43;13.57;;;7.37;;
4272;SDS011;63887;53.656;9.810;2023-03-14T09:24:09;12.63;;;8.07;;
4272;SDS011;63887;53.656;9.810;2023-03-14T09:26:36;10.47;;;8.37;;
4272;SDS011;63887;53.656;9.810;2023-03-14T09:29:02;10.67;;;7.67;;
4272;SDS011;63887;53.656;9.810;2023-03-14T09:31:29;8.00;;;7.50;;
4272;SDS011;63887;53.656;9.810;2023-03-14T09:33:55;7.83;;;6.17;;
4272;SDS011;63887;53.656;9.810;2023-03-14T09:36:23;7.77;;;7.00;;
4272;SDS011;63887;53.656;9.810;2023-03-14T09:38:50;7.57;;;7.10;;
4272;SDS011;63887;53.656;9.810;2023-03-14T09:41:17;7.90;;;7.33;;
4272;SDS011;63887;53.656;9.810;2023-03-14T09:43:47;7.50;;;7.03;;
4272;SDS011;63887;53.656;9.810;2023-03-14T09:46:16;8.70;;;7.40;;
4272;SDS011;63887;53.656;9.810;2023-03-14T09:48:43;10.63;;;8.90;;
4272;SDS011;63887;53.656;9.810;2023-03-14T09:51:11;8.50;;;7.73;;
4272;SDS011;63887;53.656;9.810;2023-03-14T09:53:41;8.20;;;7.53;;
4272;SDS011;63887;53.656;9.810;2023-03-14T09:56:11;9.10;;;8.37;;
4272;SDS011;63887;53.656;9.810;2023-03-14T09:58:40;9.20;;;7.63;;
4272;SDS011;63887;53.656;9.810;2023-03-14T10:01:08;8.07;;;7.50;;
4272;SDS011;63887;53.656;9.810;2023-03-14T10:03:40;9.00;;;8.20;;
4272;SDS011;63887;53.656;9.810;2023-03-14T10:06:11;7.87;;;7.20;;
4272;SDS011;63887;53.656;9.810;2023-03-14T10:08:40;7.30;;;7.10;;
4272;SDS011;63887;53.656;9.810;2023-03-14T10:11:10;7.03;;;6.53;;
4272;SDS011;63887;53.656;9.810;2023-03-14T10:13:47;7.30;;;7.00;;
4272;SDS011;63887;53.656;9.810;2023-03-14T10:16:15;8.13;;;7.50;;
4272;SDS011;63887;53.656;9.810;2023-03-14T10:18:43;7.40;;;7.10;;
4272;SDS011;63887;53.656;9.810;2023-03-14T10:21:16;7.13;;;7.03;;
4272;SDS011;63887;53.656;9.810;2023-03-14T10:23:48;7.70;;;7.40;;
4272;SDS011;63887;53.656;9.810;2023-03-14T10:26:15;7.27;;;7.17;;
4272;SDS011;63887;53.656;9.810;2023-03-14T10:28:43;7.53;;;7.13;;
4272;SDS011;63887;53.656;9.810;2023-03-14T10:31:12;6.27;;;6.17;;
4272;SDS011;63887;53.656;9.810;2023-03-14T10:33:38;7.43;;;7.10;;
4272;SDS011;63887;53.656;9.810;2023-03-14T10:36:06;7.13;;;6.93;;
4272;SDS011;63887;53.656;9.810;2023-03-14T10:38:43;6.45;;;6.25;;
4272;SDS011;63887;53.656;9.810;2023-03-14T10:41:15;7.10;;;6.90;;
4272;SDS011;63887;53.656;9.810;2023-03-14T10:43:44;7.18;;;6.85;;
4272;SDS011;63887;53.656;9.810;2023-03-14T10:46:13;7.23;;;7.00;;
4272;SDS011;63887;53.656;9.810;2023-03-14T10:48:42;7.20;;;7.10;;
4272;SDS011;63887;53.656;9.810;2023-03-14T10:51:11;7.18;;;6.90;;
4272;SDS011;63887;53.656;9.810;2023-03-14T10:53:44;6.60;;;6.50;;
4272;SDS011;63887;53.656;9.810;2023-03-14T10:56:12;7.70;;;7.50;;
4272;SDS011;63887;53.656;9.810;2023-03-14T10:58:42;6.20;;;6.00;;
4272;SDS011;63887;53.656;9.810;2023-03-14T11:01:16;8.05;;;7.50;;
4272;SDS011;63887;53.656;9.810;2023-03-14T11:03:51;8.20;;;7.43;;
4272;SDS011;63887;53.656;9.810;2023-03-14T11:06:24;6.53;;;6.32;;
4272;SDS011;63887;53.656;9.810;2023-03-14T11:09:00;7.93;;;7.60;;
4272;SDS011;63887;53.656;9.810;2023-03-14T11:11:31;8.07;;;7.28;;
4272;SDS011;63887;53.656;9.810;2023-03-14T11:14:03;7.57;;;6.65;;
4272;SDS011;63887;53.656;9.810;2023-03-14T11:16:40;7.13;;;6.75;;
4272;SDS011;63887;53.656;9.810;2023-03-14T11:19:20;7.65;;;7.25;;
4272;SDS011;63887;53.656;9.810;2023-03-14T11:21:57;11.43;;;7.15;;
4272;SDS011;63887;53.656;9.810;2023-03-14T11:24:33;7.40;;;6.95;;
4272;SDS011;63887;53.656;9.810;2023-03-14T11:27:16;6.88;;;6.28;;
4272;SDS011;63887;53.656;9.810;2023-03-14T11:29:47;7.88;;;7.53;;
4272;SDS011;63887;53.656;9.810;2023-03-14T11:32:23;7.88;;;7.40;;
4272;SDS011;63887;53.656;9.810;2023-03-14T11:34:57;8.10;;;7.55;;
4272;SDS011;63887;53.656;9.810;2023-03-14T11:37:31;7.65;;;7.45;;
4272;SDS011;63887;53.656;9.810;2023-03-14T11:40:01;7.40;;;7.20;;
4272;SDS011;63887;53.656;9.810;2023-03-14T11:42:34;7.67;;;7.00;;
4272;SDS011;63887;53.656;9.810;2023-03-14T11:45:03;11.23;;;8.13;;
4272;SDS011;63887;53.656;9.810;2023-03-14T11:47:38;8.90;;;8.13;;
4272;SDS011;63887;53.656;9.810;2023-03-14T11:50:12;10.30;;;8.13;;
4272;SDS011;63887;53.656;9.810;2023-03-14T11:52:44;8.10;;;7.32;;
4272;SDS011;63887;53.656;9.810;2023-03-14T11:55:17;8.00;;;7.43;;
4272;SDS011;63887;53.656;9.810;2023-03-14T11:57:47;9.20;;;8.70;;
4272;SDS011;63887;53.656;9.810;2023-03-14T12:00:19;8.25;;;7.53;;
4272;SDS011;63887;53.656;9.810;2023-03-14T12:02:48;8.73;;;8.23;;
4272;SDS011;63887;53.656;9.810;2023-03-14T12:05:30;11.57;;;8.43;;
4272;SDS011;63887;53.656;9.810;2023-03-14T12:08:31;8.10;;;7.47;;
4272;SDS011;63887;53.656;9.810;2023-03-14T12:11:04;9.57;;;8.68;;
4272;SDS011;63887;53.656;9.810;2023-03-14T12:13:36;9.40;;;8.40;;
4272;SDS011;63887;53.656;9.810;2023-03-14T12:16:07;19.25;;;8.45;;
4272;SDS011;63887;53.656;9.810;2023-03-14T12:18:45;15.18;;;8.95;;
4272;SDS011;63887;53.656;9.810;2023-03-14T12:21:12;12.13;;;8.57;;
4272;SDS011;63887;53.656;9.810;2023-03-14T12:23:41;14.43;;;8.23;;
4272;SDS011;63887;53.656;9.810;2023-03-14T12:26:16;20.83;;;8.60;;
4272;SDS011;63887;53.656;9.810;2023-03-14T12:28:48;16.53;;;8.30;;
4272;SDS011;63887;53.656;9.810;2023-03-14T12:34:04;9.50;;;8.50;;
4272;SDS011;63887;53.656;9.810;2023-03-14T12:37:10;19.13;;;8.93;;
4272;SDS011;63887;53.656;9.810;2023-03-14T12:39:45;14.20;;;7.73;;
4272;SDS011;63887;53.656;9.810;2023-03-14T12:42:24;13.30;;;7.77;;
4272;SDS011;63887;53.656;9.810;2023-03-14T12:45:14;12.93;;;7.93;;
4272;SDS011;63887;53.656;9.810;2023-03-14T12:48:09;10.97;;;8.50;;
4272;SDS011;63887;53.656;9.810;2023-03-14T12:50:42;16.37;;;7.70;;
4272;SDS011;63887;53.656;9.810;2023-03-14T12:56:20;11.20;;;8.13;;
4272;SDS011;63887;53.656;9.810;2023-03-14T12:58:53;15.93;;;8.53;;
4272;SDS011;63887;53.656;9.810;2023-03-14T13:01:30;19.33;;;9.43;;
4272;SDS011;63887;53.656;9.810;2023-03-14T13:04:02;18.57;;;8.37;;
4272;SDS011;63887;53.656;9.810;2023-03-14T13:06:46;17.17;;;8.50;;
4272;SDS011;63887;53.656;9.810;2023-03-14T13:09:34;17.10;;;8.30;;
4272;SDS011;63887;53.656;9.810;2023-03-14T13:12:25;11.57;;;8.27;;
4272;SDS011;63887;53.656;9.810;2023-03-14T13:14:57;10.88;;;9.07;;
4272;SDS011;63887;53.656;9.810;2023-03-14T13:17:29;19.30;;;8.40;;
4272;SDS011;63887;53.656;9.810;2023-03-14T13:20:02;11.33;;;8.20;;
4272;SDS011;63887;53.656;9.810;2023-03-14T13:22:32;9.10;;;8.00;;
4272;SDS011;63887;53.656;9.810;2023-03-14T13:25:02;10.73;;;8.70;;
4272;SDS011;63887;53.656;9.810;2023-03-14T13:27:31;18.85;;;7.70;;
4272;SDS011;63887;53.656;9.810;2023-03-14T13:30:04;15.90;;;8.80;;
4272;SDS011;63887;53.656;9.810;2023-03-14T13:32:40;16.73;;;8.30;;
4272;SDS011;63887;53.656;9.810;2023-03-14T13:35:15;8.25;;;7.68;;
4272;SDS011;63887;53.656;9.810;2023-03-14T13:37:46;20.63;;;8.65;;
4272;SDS011;63887;53.656;9.810;2023-03-14T13:40:19;9.47;;;8.53;;
4272;SDS011;63887;53.656;9.810;2023-03-14T13:42:49;7.93;;;7.33;;
4272;SDS011;63887;53.656;9.810;2023-03-14T13:45:27;21.07;;;7.33;;
4272;SDS011;63887;53.656;9.810;2023-03-14T13:47:53;12.30;;;8.05;;
4272;SDS011;63887;53.656;9.810;2023-03-14T13:50:21;15.52;;;7.85;;
4272;SDS011;63887;53.656;9.810;2023-03-14T13:52:47;13.25;;;8.98;;
4272;SDS011;63887;53.656;9.810;2023-03-14T13:55:21;16.35;;;8.50;;
4272;SDS011;63887;53.656;9.810;2023-03-14T13:57:48;20.92;;;8.52;;
4272;SDS011;63887;53.656;9.810;2023-03-14T14:00:19;11.23;;;7.90;;
4272;SDS011;63887;53.656;9.810;2023-03-14T14:02:48;20.40;;;9.07;;
4272;SDS011;63887;53.656;9.810;2023-03-14T14:05:16;10.77;;;8.00;;
4272;SDS011;63887;53.656;9.810;2023-03-14T14:07:44;19.40;;;7.97;;
4272;SDS011;63887;53.656;9.810;2023-03-14T14:10:11;19.17;;;8.77;;
4272;SDS011;63887;53.656;9.810;2023-03-14T14:12:40;11.87;;;7.80;;
4272;SDS011;63887;53.656;9.810;2023-03-14T14:15:15;14.75;;;8.05;;
4272;SDS011;63887;53.656;9.810;2023-03-14T14:17:45;8.27;;;7.45;;
4272;SDS011;63887;53.656;9.810;2023-03-14T14:20:17;14.05;;;7.78;;
4272;SDS011;63887;53.656;9.810;2023-03-14T14:22:49;10.05;;;8.00;;
4272;SDS011;63887;53.656;9.810;2023-03-14T14:25:16;8.88;;;8.02;;
4272;SDS011;63887;53.656;9.810;2023-03-14T14:27:43;8.63;;;7.75;;
4272;SDS011;63887;53.656;9.810;2023-03-14T14:30:28;18.07;;;7.67;;
4272;SDS011;63887;53.656;9.810;2023-03-14T14:35:48;8.65;;;6.85;;
4272;SDS011;63887;53.656;9.810;2023-03-14T14:38:19;19.70;;;8.40;;
4272;SDS011;63887;53.656;9.810;2023-03-14T14:40:47;13.48;;;7.28;;
4272;SDS011;63887;53.656;9.810;2023-03-14T14:43:17;8.97;;;7.27;;
4272;SDS011;63887;53.656;9.810;2023-03-14T14:45:47;8.38;;;7.20;;
4272;SDS011;63887;53.656;9.810;2023-03-14T14:48:17;7.18;;;6.75;;
4272;SDS011;63887;53.656;9.810;2023-03-14T14:50:50;12.65;;;7.13;;
4272;SDS011;63887;53.656;9.810;2023-03-14T14:53:24;11.37;;;7.50;;
4272;SDS011;63887;53.656;9.810;2023-03-14T14:55:54;7.53;;;6.60;;
4272;SDS011;63887;53.656;9.810;2023-03-14T14:58:23;7.47;;;6.90;;
4272;SDS011;63887;53.656;9.810;2023-03-14T15:00:53;10.43;;;7.82;;
4272;SDS011;63887;53.656;9.810;2023-03-14T15:03:22;8.25;;;7.38;;
4272;SDS011;63887;53.656;9.810;2023-03-14T15:05:53;32.07;;;8.20;;
4272;SDS011;63887;53.656;9.810;2023-03-14T15:08:21;17.55;;;7.30;;
4272;SDS011;63887;53.656;9.810;2023-03-14T15:10:48;19.90;;;7.70;;
4272;SDS011;63887;53.656;9.810;2023-03-14T15:13:15;16.33;;;7.70;;